Time;durP1;ratioP1;P1;durP2;ratioP2;P2;SDS_P1;SDS_P2;PMS_P1;PMS_P2;Temp;Humidity;BMP_temperature;BMP_pressure;BME280_temperature;BME280_humidity;BME280_pressure;Samples;Min_cycle;Max_cycle;Signal;HPM_P1;HPM_P2
2021/01/10 00:00:11;;;;;;;25.85;14.93;;;;;;;2.39;92.57;101684.84;5017616;28;20041;-69
2021/01/10 00:02:38;;;;;;;24.75;14.10;;;;;;;2.27;92.59;101690.97;5007788;28;20121;-71
2021/01/10 00:05:07;;;;;;;25.65;15.57;;;;;;;2.19;93.54;101682.38;5010460;28;20050;-70
2021/01/10 00:07:34;;;;;;;27.63;15.77;;;;;;;2.26;93.50;101686.66;5005357;28;20050;-70
2021/01/10 00:10:06;;;;;;;25.00;15.13;;;;;;;2.23;93.98;101684.09;5012637;28;20263;-67
2021/01/10 00:12:33;;;;;;;28.40;14.73;;;;;;;2.27;93.79;101685.78;5013189;28;20058;-68
2021/01/10 00:15:01;;;;;;;27.63;14.35;;;;;;;2.54;93.29;101688.16;5008196;28;20057;-69
2021/01/10 00:17:27;;;;;;;28.23;14.88;;;;;;;2.47;92.45;101690.81;5010120;28;20141;-67
2021/01/10 00:19:54;;;;;;;22.63;13.70;;;;;;;2.42;92.33;101684.78;5002981;28;20104;-70
2021/01/10 00:22:24;;;;;;;24.88;14.93;;;;;;;2.41;92.58;101690.88;5004696;28;20052;-70
2021/01/10 00:24:51;;;;;;;22.00;13.93;;;;;;;2.34;92.18;101687.44;5006837;28;20034;-69
2021/01/10 00:27:18;;;;;;;24.05;14.10;;;;;;;2.28;92.51;101695.28;5008834;28;20053;-70
2021/01/10 00:29:47;;;;;;;26.58;14.70;;;;;;;2.25;92.93;101692.72;5003405;28;20064;-68
2021/01/10 00:32:20;;;;;;;25.75;14.95;;;;;;;2.28;92.77;101698.75;5019872;23;20151;-82
2021/01/10 00:34:49;;;;;;;25.90;13.85;;;;;;;2.35;92.90;101699.59;4979015;28;20347;-80
2021/01/10 00:37:19;;;;;;;23.35;14.00;;;;;;;2.26;92.96;101697.06;4968929;28;20492;-80
2021/01/10 00:39:49;;;;;;;26.52;14.07;;;;;;;2.36;92.73;101698.69;4992140;28;20034;-81
2021/01/10 00:42:17;;;;;;;21.52;13.98;;;;;;;2.44;92.00;101702.09;5003946;28;20046;-80
2021/01/10 00:44:46;;;;;;;23.27;13.90;;;;;;;2.24;92.21;101706.59;4978008;28;20042;-81
2021/01/10 00:47:18;;;;;;;25.92;15.82;;;;;;;2.27;92.64;101706.56;4990991;28;20049;-80
2021/01/10 00:49:46;;;;;;;22.63;13.95;;;;;;;2.33;92.14;101703.91;4977680;28;20057;-81
2021/01/10 00:52:13;;;;;;;26.83;13.27;;;;;;;2.24;92.59;101702.25;4972700;28;20153;-81
2021/01/10 00:54:40;;;;;;;26.52;15.45;;;;;;;2.37;92.54;101708.22;4995193;28;20104;-81
2021/01/10 00:57:07;;;;;;;22.27;13.68;;;;;;;2.40;92.59;101705.59;4988596;28;20046;-80
2021/01/10 00:59:38;;;;;;;21.33;13.18;;;;;;;2.49;92.18;101702.06;4973852;28;20046;-79
2021/01/10 01:02:05;;;;;;;26.88;14.45;;;;;;;2.33;92.12;101706.50;4963695;28;20379;-81
2021/01/10 01:04:33;;;;;;;25.42;15.65;;;;;;;2.43;92.45;101707.28;4978626;28;20059;-84
2021/01/10 01:07:01;;;;;;;27.92;15.15;;;;;;;2.59;92.22;101716.72;4985698;28;20474;-80
2021/01/10 01:09:29;;;;;;;28.00;16.27;;;;;;;2.61;91.89;101714.09;4991078;28;20070;-81
2021/01/10 01:11:55;;;;;;;25.27;15.30;;;;;;;2.63;91.87;101721.00;4994418;28;20042;-80
2021/01/10 01:14:24;;;;;;;27.60;15.55;;;;;;;2.58;92.21;101717.59;4984510;28;20129;-81
2021/01/10 01:16:52;;;;;;;28.27;15.50;;;;;;;2.61;91.35;101722.78;4962380;28;20170;-78
2021/01/10 01:19:19;;;;;;;27.05;15.25;;;;;;;2.45;91.91;101724.63;4987590;28;20442;-80
2021/01/10 01:21:59;;;;;;;30.48;16.10;;;;;;;2.37;92.53;101721.22;4990603;28;20054;-82
2021/01/10 01:24:28;;;;;;;22.48;14.20;;;;;;;2.23;91.87;101725.66;4976377;28;20499;-79
2021/01/10 01:26:55;;;;;;;22.15;13.82;;;;;;;2.39;91.42;101726.41;4977740;28;20039;-80
2021/01/10 01:29:24;;;;;;;28.58;15.18;;;;;;;2.25;92.26;101729.97;4962216;28;20046;-80
2021/01/10 01:31:51;;;;;;;26.27;14.35;;;;;;;2.36;91.86;101731.63;4995897;28;20037;-83
2021/01/10 01:34:19;;;;;;;27.42;15.27;;;;;;;2.42;92.00;101731.56;4984363;28;20054;-81
2021/01/10 01:36:46;;;;;;;23.13;15.05;;;;;;;2.48;91.62;101731.53;4979189;28;20054;-85
2021/01/10 01:39:13;;;;;;;27.67;15.50;;;;;;;2.47;91.70;101730.66;4994294;28;20039;-81
2021/01/10 01:41:43;;;;;;;34.30;17.15;;;;;;;2.38;91.49;101738.53;4995714;28;20057;-78
2021/01/10 01:44:10;;;;;;;31.98;17.63;;;;;;;2.29;92.20;101739.44;4995303;28;20156;-79
2021/01/10 01:46:52;;;;;;;33.95;17.77;;;;;;;2.19;93.57;101742.13;4973373;28;20053;-79
2021/01/10 01:49:22;;;;;;;35.72;18.00;;;;;;;2.00;93.47;101738.78;4982044;28;20175;-81
2021/01/10 01:51:50;;;;;;;35.38;18.05;;;;;;;2.01;93.61;101736.16;4981675;28;20061;-81
2021/01/10 01:54:17;;;;;;;28.45;15.73;;;;;;;2.08;93.14;101742.22;4974834;28;20371;-84
2021/01/10 01:56:44;;;;;;;30.90;16.85;;;;;;;2.25;92.99;101734.28;4981340;28;20034;-83
2021/01/10 01:59:11;;;;;;;27.52;16.27;;;;;;;2.34;92.04;101742.00;4963543;28;20458;-81
2021/01/10 02:01:38;;;;;;;32.90;16.50;;;;;;;2.27;91.89;101745.53;4981469;28;20114;-80
2021/01/10 02:04:22;;;;;;;31.85;16.27;;;;;;;2.27;91.91;101738.59;4968716;28;20054;-82
2021/01/10 02:06:59;;;;;;;28.33;15.38;;;;;;;2.36;92.09;101742.03;4996473;28;20149;-79
2021/01/10 02:09:27;;;;;;;26.38;14.75;;;;;;;2.19;92.13;101742.13;4980277;28;20081;-80
2021/01/10 02:11:55;;;;;;;26.95;15.32;;;;;;;2.39;91.67;101739.41;5006726;28;20057;-84
2021/01/10 02:14:27;;;;;;;31.90;15.98;;;;;;;2.18;92.01;101740.41;4963735;28;20079;-83
2021/01/10 02:16:59;;;;;;;29.75;15.77;;;;;;;2.07;91.80;101745.66;5003519;28;20106;-79
2021/01/10 02:20:03;;;;;;;28.63;15.10;;;;;;;2.13;91.96;101745.63;4964928;28;20127;-81
2021/01/10 02:22:42;;;;;;;27.20;16.15;;;;;;;1.85;92.68;101741.47;5001614;28;20038;-81
2021/01/10 02:25:10;;;;;;;32.03;16.00;;;;;;;1.98;92.23;101743.09;4987590;28;20545;-81
2021/01/10 02:27:39;;;;;;;34.05;17.33;;;;;;;1.84;92.56;101748.38;4988261;28;20061;-84
2021/01/10 02:30:10;;;;;;;27.30;15.27;;;;;;;1.71;93.01;101745.00;4970059;28;20068;-80
2021/01/10 02:32:44;;;;;;;31.48;16.25;;;;;;;1.62;93.29;101750.22;4987879;28;20121;-83
2021/01/10 02:35:14;;;;;;;31.20;16.95;;;;;;;1.61;93.64;101752.81;4960641;28;20046;-80
2021/01/10 02:38:07;;;;;;;30.00;15.63;;;;;;;1.66;93.91;101754.50;5006370;28;20050;-83
2021/01/10 02:40:45;;;;;;;28.60;14.75;;;;;;;1.66;92.83;101751.06;4994558;28;20043;-84
2021/01/10 02:43:33;;;;;;;32.50;15.43;;;;;;;1.65;92.88;101751.94;4981357;28;20559;-79
2021/01/10 02:46:03;;;;;;;29.50;15.55;;;;;;;1.80;92.69;101746.66;4976572;28;20489;-84
2021/01/10 02:48:30;;;;;;;27.77;15.85;;;;;;;1.98;92.36;101745.69;4973639;28;20050;-84
2021/01/10 02:51:10;;;;;;;34.05;16.95;;;;;;;1.94;91.95;101746.63;4978525;28;20124;-84
2021/01/10 02:53:40;;;;;;;31.50;17.65;;;;;;;1.87;92.04;101744.91;4973076;28;20121;-82
2021/01/10 02:56:08;;;;;;;33.60;17.23;;;;;;;1.82;92.46;101746.69;4973589;28;20069;-86
2021/01/10 02:58:38;;;;;;;30.70;16.52;;;;;;;2.08;92.00;101749.13;4979516;28;20595;-84
2021/01/10 03:01:08;;;;;;;35.15;16.48;;;;;;;2.22;90.89;101750.78;4987900;28;20053;-78
2021/01/10 03:03:35;;;;;;;31.95;17.45;;;;;;;2.10;90.29;101742.19;4991283;28;20046;-83
2021/01/10 03:06:02;;;;;;;29.50;15.55;;;;;;;2.05;90.93;101746.56;4962777;28;20072;-83
2021/01/10 03:08:29;;;;;;;28.85;15.70;;;;;;;1.92;90.50;101745.75;4972980;28;20077;-82
2021/01/10 03:10:56;;;;;;;31.80;17.45;;;;;;;1.78;90.91;101748.41;4976795;28;20080;-83
2021/01/10 03:13:23;;;;;;;28.58;16.58;;;;;;;1.96;90.92;101750.91;4986407;28;20525;-79
2021/01/10 03:15:51;;;;;;;24.73;14.50;;;;;;;2.03;90.77;101750.03;4994009;28;20061;-79
2021/01/10 03:18:22;;;;;;;26.00;14.85;;;;;;;2.06;90.33;101748.25;4961111;28;20042;-81
2021/01/10 03:20:49;;;;;;;28.02;14.65;;;;;;;2.20;89.75;101747.31;4984767;28;20070;-82
2021/01/10 03:23:17;;;;;;;25.52;15.05;;;;;;;2.36;89.20;101750.69;4968997;28;20056;-83
2021/01/10 03:25:44;;;;;;;27.95;15.18;;;;;;;2.22;88.93;101744.72;4988676;28;20057;-80
2021/01/10 03:28:11;;;;;;;28.58;15.38;;;;;;;1.77;90.57;101749.28;4955478;28;20050;-83
2021/01/10 03:30:38;;;;;;;29.35;14.80;;;;;;;1.84;91.43;101752.72;4984194;28;20555;-83
2021/01/10 03:33:06;;;;;;;27.83;13.82;;;;;;;2.01;90.90;101748.28;4968937;28;20054;-86
2021/01/10 03:35:34;;;;;;;26.95;14.52;;;;;;;1.76;90.43;101750.16;4987917;28;20489;-82
2021/01/10 03:38:06;;;;;;;27.73;13.95;;;;;;;1.60;91.62;101748.50;4957336;28;20064;-83
2021/01/10 03:40:33;;;;;;;28.38;14.93;;;;;;;1.72;91.46;101751.91;4993445;28;20425;-83
2021/01/10 03:43:02;;;;;;;25.45;13.68;;;;;;;1.65;91.91;101759.72;4971783;28;20049;-83
2021/01/10 03:45:28;;;;;;;24.02;12.73;;;;;;;1.66;90.88;101759.69;4974904;28;20053;-81
2021/01/10 03:47:55;;;;;;;24.35;12.88;;;;;;;1.66;90.97;101761.44;4972593;28;20096;-85
2021/01/10 03:50:22;;;;;;;25.08;13.20;;;;;;;1.63;91.09;101762.34;4997848;28;20113;-80
2021/01/10 03:52:49;;;;;;;25.13;13.68;;;;;;;1.49;91.06;101759.78;4965085;28;20133;-84
2021/01/10 03:55:16;;;;;;;26.45;13.98;;;;;;;1.74;91.11;101757.09;4989639;28;20391;-81
2021/01/10 03:57:44;;;;;;;30.08;14.30;;;;;;;1.76;90.30;101760.56;4983428;28;20047;-82
2021/01/10 04:00:12;;;;;;;29.15;14.18;;;;;;;1.93;90.07;101757.84;4991750;28;20417;-83
2021/01/10 04:02:39;;;;;;;27.77;15.77;;;;;;;1.85;89.91;101759.66;4949586;28;20066;-81
2021/01/10 04:05:07;;;;;;;25.38;12.85;;;;;;;1.90;89.48;101766.53;4978691;28;20100;-80
2021/01/10 04:07:34;;;;;;;26.20;13.93;;;;;;;1.87;90.00;101761.34;4980843;28;20149;-83
2021/01/10 04:10:03;;;;;;;25.95;14.23;;;;;;;1.89;89.24;101758.72;4961052;28;20081;-81
2021/01/10 04:12:32;;;;;;;30.60;13.63;;;;;;;1.65;89.25;101762.31;4995766;28;20053;-82
2021/01/10 04:15:03;;;;;;;24.05;13.85;;;;;;;1.73;89.16;101757.97;4971891;28;20410;-81
2021/01/10 04:17:29;;;;;;;27.70;14.43;;;;;;;1.68;88.74;101760.56;4995375;28;20050;-84
2021/01/10 04:19:58;;;;;;;23.73;12.68;;;;;;;1.73;88.07;101758.81;4975214;28;20073;-84
2021/01/10 04:22:25;;;;;;;24.23;12.90;;;;;;;1.62;87.81;101754.53;4981081;28;20121;-82
2021/01/10 04:24:52;;;;;;;22.98;14.05;;;;;;;1.64;88.28;101752.81;4955568;28;20073;-82
2021/01/10 04:27:19;;;;;;;22.65;13.20;;;;;;;1.78;87.97;101753.59;4977732;28;20099;-81
2021/01/10 04:29:52;;;;;;;24.63;13.02;;;;;;;1.87;87.53;101750.09;4975919;28;20053;-82
2021/01/10 04:32:19;;;;;;;20.38;11.52;;;;;;;1.87;86.94;101743.19;4967868;28;20054;-84
2021/01/10 04:34:46;;;;;;;20.40;11.80;;;;;;;1.81;87.14;101743.22;4960745;28;20485;-83
2021/01/10 04:37:13;;;;;;;24.75;12.80;;;;;;;1.76;87.02;101743.25;4957897;28;20050;-82
2021/01/10 04:39:40;;;;;;;21.52;11.60;;;;;;;1.70;87.62;101732.88;4991177;28;20118;-83
2021/01/10 04:42:08;;;;;;;19.65;11.55;;;;;;;1.61;87.17;101734.66;4968475;28;20042;-82
2021/01/10 04:44:35;;;;;;;25.50;14.10;;;;;;;1.40;87.78;101735.59;4971905;28;20390;-82
2021/01/10 04:47:02;;;;;;;18.20;11.02;;;;;;;1.55;87.13;101735.53;4980161;28;20398;-84
2021/01/10 04:49:29;;;;;;;23.63;13.10;;;;;;;1.52;86.78;101744.19;4982060;28;20081;-82
2021/01/10 04:52:00;;;;;;;22.00;12.52;;;;;;;1.43;87.39;101741.63;4982631;28;20050;-79
2021/01/10 04:54:29;;;;;;;22.20;12.70;;;;;;;1.43;86.98;101744.22;4978865;28;20042;-81
2021/01/10 04:56:57;;;;;;;20.48;12.25;;;;;;;1.38;87.83;101743.38;4958989;28;20050;-85
2021/01/10 04:59:27;;;;;;;23.77;13.85;;;;;;;1.55;87.54;101745.06;4974651;28;20042;-81
2021/01/10 05:01:55;;;;;;;26.05;12.75;;;;;;;1.66;87.22;101736.34;5003014;28;20093;-80
2021/01/10 05:04:24;;;;;;;23.25;13.40;;;;;;;1.71;86.24;101739.81;5011442;28;20046;-82
2021/01/10 05:06:51;;;;;;;24.90;12.80;;;;;;;1.40;86.46;101738.19;4986751;28;20109;-79
2021/01/10 05:09:22;;;;;;;27.00;13.77;;;;;;;1.19;87.45;101739.13;4984508;28;20050;-82
2021/01/10 05:11:49;;;;;;;23.30;12.75;;;;;;;1.12;88.27;101739.97;4998309;28;20034;-84
2021/01/10 05:14:16;;;;;;;30.15;13.55;;;;;;;1.23;88.29;101740.84;4996435;28;20042;-83
2021/01/10 05:16:45;;;;;;;24.77;13.23;;;;;;;1.13;88.78;101744.31;4979568;28;20050;-82
2021/01/10 05:19:19;;;;;;;27.92;13.77;;;;;;;1.04;88.58;101746.91;4953414;28;20097;-83
2021/01/10 05:21:45;;;;;;;25.15;13.80;;;;;;;1.19;88.59;101742.56;4979490;28;20519;-83
2021/01/10 05:24:17;;;;;;;25.77;12.43;;;;;;;1.02;88.70;101742.59;4995472;28;20038;-83
2021/01/10 05:26:46;;;;;;;25.80;13.57;;;;;;;0.99;88.83;101740.03;4987520;28;20118;-83
2021/01/10 05:29:13;;;;;;;25.02;12.80;;;;;;;0.85;89.83;101743.47;4999708;28;20065;-81
2021/01/10 05:31:44;;;;;;;26.45;13.00;;;;;;;0.88;88.73;101740.91;4984075;28;20490;-84
2021/01/10 05:34:17;;;;;;;28.30;14.15;;;;;;;0.72;89.17;101740.03;4980049;28;20482;-82
2021/01/10 05:36:44;;;;;;;26.02;14.15;;;;;;;0.68;89.51;101744.38;5002129;28;20544;-84
2021/01/10 05:39:30;;;;;;;24.08;13.35;;;;;;;0.67;89.92;101741.75;4996985;28;20078;-79
2021/01/10 05:41:59;;;;;;;25.48;13.77;;;;;;;0.76;90.14;101739.16;4997816;28;20054;-82
2021/01/10 05:44:28;;;;;;;22.95;13.10;;;;;;;0.95;89.44;101746.09;4984547;28;20528;-81
2021/01/10 05:47:03;;;;;;;21.98;12.07;;;;;;;1.17;88.12;101744.31;4988784;28;20045;-81
2021/01/10 05:49:31;;;;;;;24.80;12.48;;;;;;;1.16;88.03;101744.31;4989509;28;20050;-83
2021/01/10 05:52:09;;;;;;;24.08;11.30;;;;;;;1.29;87.62;101739.94;4998644;28;20056;-82
2021/01/10 05:54:37;;;;;;;22.35;11.75;;;;;;;1.17;86.84;101743.44;4979476;28;20046;-84
2021/01/10 05:57:06;;;;;;;22.45;11.88;;;;;;;1.10;86.85;101741.72;4996162;28;20494;-85
2021/01/10 05:59:36;;;;;;;22.08;12.13;;;;;;;1.12;86.69;101745.16;4973545;28;20166;-83
2021/01/10 06:02:04;;;;;;;22.45;11.32;;;;;;;1.18;86.45;101746.03;4977082;28;20064;-81
2021/01/10 06:04:34;;;;;;;22.23;11.02;;;;;;;0.85;86.78;101746.94;4977022;28;20042;-82
2021/01/10 06:07:03;;;;;;;22.50;11.50;;;;;;;1.02;87.04;101750.38;4984324;28;20046;-82
2021/01/10 06:09:46;;;;;;;20.55;11.38;;;;;;;1.18;86.49;101746.03;4978285;28;20038;-83
2021/01/10 06:12:25;;;;;;;19.23;10.48;;;;;;;1.17;85.74;101752.09;4979440;28;20038;-84
2021/01/10 06:15:15;;;;;;;18.98;10.70;;;;;;;0.99;86.06;101754.69;4989392;28;20088;-81
2021/01/10 06:17:43;;;;;;;21.77;11.43;;;;;;;0.96;86.46;101750.41;5001821;28;20048;-83
2021/01/10 06:20:24;;;;;;;22.35;10.90;;;;;;;0.99;86.03;101757.28;4978356;28;20038;-81
2021/01/10 06:22:53;;;;;;;17.75;10.23;;;;;;;1.16;85.38;101752.09;4973582;28;20093;-84
2021/01/10 06:25:25;;;;;;;22.70;10.70;;;;;;;1.18;84.73;101753.81;4976993;28;20112;-85
2021/01/10 06:28:01;;;;;;;18.85;10.48;;;;;;;1.06;84.37;101760.75;4993289;28;20052;-85
2021/01/10 06:30:32;;;;;;;25.25;10.80;;;;;;;0.83;85.32;101758.19;4978223;28;20046;-83
2021/01/10 06:33:10;;;;;;;19.83;10.90;;;;;;;1.03;84.90;101761.59;4985567;28;20050;-83
2021/01/10 06:35:39;;;;;;;17.50;10.00;;;;;;;1.04;84.56;101757.28;4975787;28;20058;-83
2021/01/10 06:38:08;;;;;;;18.48;9.98;;;;;;;0.94;84.74;101761.63;4975717;28;20046;-86
2021/01/10 06:40:37;;;;;;;19.27;9.35;;;;;;;1.04;83.90;101758.16;4983001;28;20042;-82
2021/01/10 06:43:05;;;;;;;14.40;7.75;;;;;;;0.93;83.78;101771.13;4989317;28;20034;-83
2021/01/10 06:46:02;;;;;;;17.15;8.95;;;;;;;1.09;83.89;101774.59;4979305;28;20046;-81
2021/01/10 06:48:29;;;;;;;14.88;8.95;;;;;;;1.10;83.18;101770.25;4989731;28;20054;-82
2021/01/10 06:50:57;;;;;;;15.48;8.88;;;;;;;1.20;82.44;101782.34;4963678;28;20046;-84
2021/01/10 06:53:24;;;;;;;20.00;9.60;;;;;;;1.24;82.38;101779.72;4976954;28;20050;-79
2021/01/10 06:55:50;;;;;;;18.17;9.05;;;;;;;0.93;81.76;101781.50;4972172;28;20520;-79
2021/01/10 06:58:17;;;;;;;16.13;9.50;;;;;;;1.10;82.62;101785.81;4952864;28;20129;-81
2021/01/10 07:00:55;;;;;;;17.60;9.55;;;;;;;1.05;82.62;101792.75;4962170;28;21524;-81
2021/01/10 07:03:26;;;;;;;20.50;10.13;;;;;;;0.92;83.22;101790.16;4977917;28;20045;-81
2021/01/10 07:05:56;;;;;;;18.95;10.32;;;;;;;1.08;82.73;101785.84;4990402;28;20045;-83
2021/01/10 07:08:36;;;;;;;16.80;9.85;;;;;;;0.99;83.09;101793.59;4977263;28;20065;-81
2021/01/10 07:11:29;;;;;;;17.80;9.93;;;;;;;0.71;84.23;101787.56;4970468;28;20092;-81
2021/01/10 07:13:55;;;;;;;16.00;9.20;;;;;;;0.86;84.02;101794.50;4977423;28;20057;-82
2021/01/10 07:16:26;;;;;;;17.88;10.30;;;;;;;0.99;84.58;101796.19;4984623;28;20074;-82
2021/01/10 07:18:59;;;;;;;16.52;9.75;;;;;;;1.11;84.31;101798.78;4993532;28;20481;-81
2021/01/10 07:21:35;;;;;;;16.10;9.05;;;;;;;1.17;84.18;101795.28;4985874;28;20073;-82
2021/01/10 07:24:15;;;;;;;16.10;10.10;;;;;;;1.03;83.78;101792.72;4977907;28;20075;-80
2021/01/10 07:26:49;;;;;;;18.05;10.10;;;;;;;1.10;84.43;101791.00;4997381;28;20034;-80
2021/01/10 07:29:31;;;;;;;15.68;10.35;;;;;;;1.01;84.34;101803.09;4970480;28;20053;-82
2021/01/10 07:32:00;;;;;;;15.43;9.50;;;;;;;1.10;84.51;101798.78;4994016;28;20034;-86
2021/01/10 07:34:27;;;;;;;19.67;9.73;;;;;;;1.12;83.97;101797.03;4975499;28;20046;-81
2021/01/10 07:36:56;;;;;;;16.63;9.60;;;;;;;0.83;83.89;101808.31;5000117;28;20145;-81
2021/01/10 07:39:28;;;;;;;16.17;9.93;;;;;;;0.75;84.28;101804.84;4990454;28;20349;-79
2021/01/10 07:42:13;;;;;;;17.63;9.70;;;;;;;0.97;84.48;101819.53;4976202;28;20042;-80
2021/01/10 07:45:00;;;;;;;16.98;9.88;;;;;;;0.73;84.55;101814.34;4990803;28;20113;-81
2021/01/10 07:47:33;;;;;;;23.60;10.57;;;;;;;0.83;85.36;101815.22;4982758;28;20046;-80
2021/01/10 07:50:15;;;;;;;18.98;10.63;;;;;;;1.07;83.76;101812.59;4999245;28;20046;-83
2021/01/10 07:52:42;;;;;;;18.27;8.85;;;;;;;1.13;83.50;101812.63;4994494;28;20125;-79
2021/01/10 07:55:23;;;;;;;17.25;9.10;;;;;;;0.87;83.08;101823.00;4993307;28;20030;-77
2021/01/10 07:58:11;;;;;;;15.30;9.27;;;;;;;0.83;83.15;101831.63;4987205;28;20221;-86
2021/01/10 08:04:10;;;;;;;17.17;9.40;;;;;;;1.09;82.80;101829.03;4985941;28;20056;-85
2021/01/10 08:06:57;;;;;;;19.13;8.65;;;;;;;1.00;81.98;101840.28;4995618;28;20398;-83
2021/01/10 08:09:30;;;;;;;15.52;8.73;;;;;;;1.05;82.04;101842.00;4972283;28;20054;-78
2021/01/10 08:11:57;;;;;;;16.55;9.05;;;;;;;1.20;82.10;101839.41;4967640;28;20041;-85
2021/01/10 08:14:24;;;;;;;16.30;8.18;;;;;;;1.27;81.58;101846.31;4971656;28;20060;-82
2021/01/10 08:16:51;;;;;;;13.63;7.90;;;;;;;1.35;81.30;101847.19;4989401;28;20042;-83
2021/01/10 08:19:18;;;;;;;14.75;8.43;;;;;;;1.23;81.68;101852.38;4955071;28;20082;-81
2021/01/10 08:21:48;;;;;;;14.13;8.43;;;;;;;1.23;81.49;101847.19;4991138;28;20054;-83
2021/01/10 08:24:17;;;;;;;16.45;8.98;;;;;;;1.27;81.78;101847.19;4986689;28;20062;-85
2021/01/10 08:26:44;;;;;;;18.98;9.13;;;;;;;1.36;81.16;101851.50;4979579;28;20130;-81
2021/01/10 08:29:12;;;;;;;15.27;9.05;;;;;;;1.20;80.91;101855.81;4992758;28;20065;-83
2021/01/10 08:31:41;;;;;;;14.40;8.00;;;;;;;1.12;81.33;101846.31;4972208;28;20053;-81
2021/01/10 08:34:16;;;;;;;12.98;7.78;;;;;;;1.01;81.73;101844.59;4991918;28;20050;-84
2021/01/10 08:36:45;;;;;;;14.25;8.18;;;;;;;0.95;81.37;101852.38;4985215;28;20043;-80
2021/01/10 08:39:15;;;;;;;13.30;8.27;;;;;;;0.78;82.36;101850.63;4965318;28;20050;-81
2021/01/10 08:41:49;;;;;;;11.88;7.32;;;;;;;0.88;81.90;101848.03;5004205;28;20054;-81
2021/01/10 08:44:30;;;;;;;12.65;7.93;;;;;;;0.95;81.82;101849.78;4973245;28;20101;-83
2021/01/10 08:46:57;;;;;;;13.45;7.82;;;;;;;1.07;82.08;101848.03;4983841;28;20066;-84
2021/01/10 08:49:25;;;;;;;15.98;9.32;;;;;;;0.96;82.41;101861.88;4973689;28;20046;-82
2021/01/10 08:51:53;;;;;;;15.13;8.85;;;;;;;0.96;82.49;101855.84;4982644;28;20462;-83
2021/01/10 08:54:21;;;;;;;17.58;8.90;;;;;;;0.90;82.76;101858.41;4967730;28;20074;-82
2021/01/10 08:56:52;;;;;;;13.52;7.70;;;;;;;0.66;83.58;101861.84;4993008;28;20506;-81
2021/01/10 08:59:19;;;;;;;15.70;8.35;;;;;;;0.47;84.55;101856.63;4983607;28;20051;-84
2021/01/10 09:01:48;;;;;;;17.05;8.15;;;;;;;0.67;83.82;101850.59;5008300;28;20537;-81
2021/01/10 09:04:19;;;;;;;14.43;8.00;;;;;;;0.62;83.50;101862.69;4973777;28;20488;-82
2021/01/10 09:07:13;;;;;;;14.15;8.00;;;;;;;0.66;82.98;101860.13;4965674;28;20125;-84
2021/01/10 09:09:53;;;;;;;15.43;8.30;;;;;;;0.79;83.07;101862.72;4988537;28;20050;-85
2021/01/10 09:12:38;;;;;;;18.80;9.20;;;;;;;0.80;82.68;101857.53;4999797;28;20038;-86
2021/01/10 09:15:33;;;;;;;15.23;8.60;;;;;;;0.67;83.30;101859.25;4994756;28;20500;-83
2021/01/10 09:18:19;;;;;;;14.20;8.05;;;;;;;0.86;83.89;101865.34;4980267;28;20061;-83
2021/01/10 09:20:51;;;;;;;16.42;8.82;;;;;;;0.98;82.94;101867.91;4978366;28;20051;-79
2021/01/10 09:23:20;;;;;;;12.15;7.72;;;;;;;0.90;83.00;101863.59;4955453;28;20116;-81
2021/01/10 09:25:51;;;;;;;19.23;9.27;;;;;;;0.96;82.86;101863.63;4974582;28;20041;-83
2021/01/10 09:28:40;;;;;;;15.10;8.75;;;;;;;1.07;82.23;101864.47;4981863;28;20045;-88
2021/01/10 09:31:11;;;;;;;;;;;;;;;1.11;81.89;101866.19;4994114;28;20577;-84
2021/01/10 09:33:55;;;;;;;16.50;9.15;;;;;;;1.02;82.46;101866.19;4998300;28;20012;-82
2021/01/10 09:36:43;;;;;;;16.20;8.93;;;;;;;1.00;82.80;101862.75;5004510;28;20042;-89
2021/01/10 09:39:47;;;;;;;16.05;8.35;;;;;;;1.01;80.92;101862.75;5007977;28;20072;-84
2021/01/10 09:42:21;;;;;;;12.95;7.95;;;;;;;1.01;81.04;101867.06;5012401;28;20053;-85
2021/01/10 09:45:08;;;;;;;14.50;8.25;;;;;;;0.57;82.31;101861.81;5003305;28;20035;-85
2021/01/10 09:47:37;;;;;;;13.80;8.15;;;;;;;0.71;81.61;101867.91;4995639;28;20057;-86
2021/01/10 09:50:15;;;;;;;12.50;8.10;;;;;;;0.79;81.66;101860.13;4986743;28;20054;-81
2021/01/10 09:52:48;;;;;;;13.57;8.52;;;;;;;1.11;81.84;101866.19;4995922;28;20076;-80
2021/01/10 09:55:27;;;;;;;15.80;9.15;;;;;;;1.24;80.52;101856.69;4984113;28;20046;-84
2021/01/10 09:57:58;;;;;;;14.48;8.18;;;;;;;1.31;79.57;101861.03;5010135;28;20050;-81
2021/01/10 10:00:29;;;;;;;15.57;8.73;;;;;;;1.62;78.46;101869.63;5000321;28;20135;-78
2021/01/10 10:03:09;;;;;;;14.43;8.30;;;;;;;1.35;78.83;101859.25;4976241;28;20030;-85
2021/01/10 10:05:39;;;;;;;15.57;9.10;;;;;;;1.69;78.07;101854.88;4983320;28;20050;-83
2021/01/10 10:08:08;;;;;;;16.95;9.38;;;;;;;1.58;78.11;101857.53;5008914;28;20050;-86
2021/01/10 10:10:40;;;;;;;17.10;8.85;;;;;;;2.17;77.17;101850.41;5030826;28;20038;-86
2021/01/10 10:13:10;;;;;;;16.15;9.27;;;;;;;1.89;76.91;101849.63;4988811;28;20048;-85
2021/01/10 10:15:49;;;;;;;13.43;8.40;;;;;;;2.36;76.13;101840.78;5000469;28;20043;-86
2021/01/10 10:18:23;;;;;;;13.73;8.75;;;;;;;2.67;74.47;101844.91;4972793;28;20049;-84
2021/01/10 10:20:52;;;;;;;14.73;8.73;;;;;;;2.49;73.62;101848.47;5009460;28;20100;-86
2021/01/10 10:23:23;;;;;;;12.65;8.82;;;;;;;2.18;74.42;101847.78;4982169;28;20053;-89
2021/01/10 10:25:51;;;;;;;14.07;7.72;;;;;;;1.79;75.53;101848.78;5012459;28;20054;-86
2021/01/10 10:28:23;;;;;;;12.48;8.50;;;;;;;1.84;75.53;101846.19;4990726;28;20034;-90
2021/01/10 10:30:50;;;;;;;13.90;8.63;;;;;;;1.88;75.51;101845.31;4991302;28;20113;-89
2021/01/10 10:33:19;;;;;;;14.98;8.95;;;;;;;2.32;75.30;101844.25;4975007;28;20068;-82
2021/01/10 10:35:46;;;;;;;15.00;8.65;;;;;;;2.32;73.93;101837.31;4967217;28;20128;-82
2021/01/10 10:38:13;;;;;;;12.57;8.07;;;;;;;2.24;74.89;101842.53;4994493;28;20073;-85
2021/01/10 10:40:48;;;;;;;13.65;8.35;;;;;;;2.44;73.33;101845.06;4956109;28;20089;-85
2021/01/10 10:43:15;;;;;;;13.77;8.52;;;;;;;1.89;75.03;101850.50;4994267;28;20659;-85
2021/01/10 10:45:43;;;;;;;12.82;7.70;;;;;;;2.23;73.97;101830.44;4991175;28;20050;-85
2021/01/10 10:48:12;;;;;;;13.50;8.80;;;;;;;2.26;74.52;101840.81;4991813;28;20042;-84
2021/01/10 10:50:39;;;;;;;13.52;8.60;;;;;;;2.23;73.64;101837.38;4967545;28;20497;-88
2021/01/10 10:53:08;;;;;;;14.15;8.52;;;;;;;2.31;73.95;101834.75;4991262;28;20042;-84
2021/01/10 10:55:38;;;;;;;14.73;8.35;;;;;;;1.49;76.03;101835.03;4986159;28;20046;-84
2021/01/10 10:58:09;;;;;;;14.63;9.05;;;;;;;1.62;75.71;101825.50;5002371;28;20054;-85
2021/01/10 11:00:36;;;;;;;15.82;8.52;;;;;;;1.38;76.09;101825.53;4995171;28;20046;-85
2021/01/10 11:03:03;;;;;;;15.50;8.38;;;;;;;1.58;75.51;101818.59;4997463;28;20042;-84
2021/01/10 11:05:30;;;;;;;14.82;8.10;;;;;;;1.40;75.45;101819.50;4979473;28;20070;-84
2021/01/10 11:08:00;;;;;;;12.88;7.85;;;;;;;1.15;76.41;101816.06;4963913;28;20039;-83
2021/01/10 11:10:31;;;;;;;13.40;7.82;;;;;;;1.16;76.50;101815.19;4985876;28;20097;-82
2021/01/10 11:13:01;;;;;;;15.57;7.57;;;;;;;1.30;76.59;101809.97;4978869;28;20137;-85
2021/01/10 11:15:29;;;;;;;13.80;8.73;;;;;;;1.41;75.90;101809.97;4991730;28;20038;-84
2021/01/10 11:17:58;;;;;;;15.15;8.93;;;;;;;1.58;75.91;101804.75;4976885;28;20034;-83
2021/01/10 11:20:39;;;;;;;11.85;6.93;;;;;;;1.63;74.88;101797.81;4985752;28;20054;-82
2021/01/10 11:23:09;;;;;;;12.88;7.05;;;;;;;1.54;75.21;101806.47;4988134;28;20046;-82
2021/01/10 11:25:36;;;;;;;14.35;8.15;;;;;;;1.72;78.02;101797.78;4958285;28;20254;-81
2021/01/10 11:28:09;;;;;;;14.27;7.57;;;;;;;1.40;75.70;101796.16;4984801;28;20058;-85
2021/01/10 11:30:43;;;;;;;19.05;8.40;;;;;;;1.48;77.33;101790.91;5008564;28;20101;-81
2021/01/10 11:33:11;;;;;;;15.75;8.48;;;;;;;1.84;79.72;101792.50;5009028;28;20065;-81
2021/01/10 11:35:39;;;;;;;15.55;8.63;;;;;;;1.58;76.01;101787.44;4982735;28;20046;-82
2021/01/10 11:38:14;;;;;;;15.77;8.25;;;;;;;1.63;76.09;101790.88;5000029;28;20707;-84
2021/01/10 11:40:41;;;;;;;17.15;8.98;;;;;;;1.63;76.25;101782.25;5003718;28;20488;-81
2021/01/10 11:43:17;;;;;;;17.30;9.25;;;;;;;1.66;75.89;101782.19;5009385;28;20042;-83